Time;durP1;ratioP1;P1;durP2;ratioP2;P2;SDS_P1;SDS_P2;PMS_P1;PMS_P2;Temp;Humidity;BMP_temperature;BMP_pressure;BME280_temperature;BME280_humidity;BME280_pressure;Samples;Min_cycle;Max_cycle;Signal;HPM_P1;HPM_P2
2022/07/03 00:01:57;;;;;;;9.00;5.28;;;21.60;99.90;;;;;;5012066;28;20395;-88
2022/07/03 00:04:25;;;;;;;9.07;5.50;;;21.50;99.90;;;;;;5013176;28;20806;-88
2022/07/03 00:06:54;;;;;;;8.65;5.50;;;21.40;99.90;;;;;;4996618;28;20957;-88
2022/07/03 00:09:22;;;;;;;8.55;5.32;;;21.40;99.90;;;;;;5012753;28;20451;-88
2022/07/03 00:11:53;;;;;;;6.70;4.32;;;21.20;99.90;;;;;;5002479;28;20415;-87
2022/07/03 00:14:20;;;;;;;9.53;5.07;;;21.40;99.90;;;;;;5013125;28;20920;-88
2022/07/03 00:16:48;;;;;;;10.98;5.60;;;21.50;99.90;;;;;;5008665;28;20396;-87
2022/07/03 00:19:16;;;;;;;12.48;5.32;;;21.50;99.90;;;;;;5001143;28;20807;-87
2022/07/03 00:21:55;;;;;;;17.08;6.32;;;21.50;99.90;;;;;;5007528;28;20595;-87
2022/07/03 00:24:32;;;;;;;12.15;5.78;;;21.50;99.90;;;;;;5004590;28;20395;-86
2022/07/03 00:27:01;;;;;;;16.90;6.95;;;21.60;99.90;;;;;;4994241;28;20478;-86
2022/07/03 00:29:38;;;;;;;21.02;8.90;;;21.60;99.90;;;;;;5008783;28;20411;-87
2022/07/03 00:32:12;;;;;;;17.58;7.93;;;21.60;99.90;;;;;;5005141;28;20399;-86
2022/07/03 00:34:42;;;;;;;14.25;7.40;;;21.50;99.90;;;;;;5012445;28;20494;-87
2022/07/03 00:37:10;;;;;;;17.17;7.60;;;21.50;99.90;;;;;;5012360;28;20391;-87
2022/07/03 00:39:41;;;;;;;14.23;8.10;;;21.50;99.90;;;;;;5012542;28;20470;-87
2022/07/03 00:42:10;;;;;;;12.82;6.40;;;21.50;99.90;;;;;;5013132;28;20924;-87
2022/07/03 00:44:50;;;;;;;9.60;6.32;;;21.50;99.90;;;;;;4996251;28;20393;-87
2022/07/03 00:47:20;;;;;;;11.32;6.60;;;21.50;99.90;;;;;;4993816;28;20428;-87
2022/07/03 00:49:51;;;;;;;12.05;6.30;;;21.40;99.90;;;;;;4998771;28;20447;-86
2022/07/03 00:52:21;;;;;;;9.40;5.80;;;21.50;99.90;;;;;;5008518;28;20393;-87
2022/07/03 00:54:59;;;;;;;10.32;6.65;;;21.40;99.90;;;;;;4999318;28;20476;-88
2022/07/03 00:57:29;;;;;;;12.32;6.13;;;21.40;99.90;;;;;;4993528;28;20468;-87
2022/07/03 00:59:57;;;;;;;12.20;6.50;;;21.40;99.90;;;;;;5002553;28;20406;-87
2022/07/03 01:02:55;;;;;;;10.13;6.10;;;21.40;99.90;;;;;;5007781;28;20451;-87
2022/07/03 01:05:53;;;;;;;10.88;6.30;;;21.40;99.90;;;;;;4997299;28;20400;-86
2022/07/03 01:08:32;;;;;;;8.68;5.70;;;21.30;99.90;;;;;;4990640;28;20437;-86
2022/07/03 01:11:27;;;;;;;8.38;5.75;;;21.30;99.90;;;;;;5000172;28;20406;-87
2022/07/03 01:14:22;;;;;;;10.32;5.65;;;21.30;99.90;;;;;;5012159;28;20731;-87
2022/07/03 01:17:02;;;;;;;9.30;5.72;;;21.30;99.90;;;;;;4991981;28;20760;-87
2022/07/03 01:19:43;;;;;;;9.07;5.88;;;21.30;99.90;;;;;;4993112;28;20405;-86
2022/07/03 01:22:32;;;;;;;8.50;5.60;;;21.20;99.90;;;;;;5011855;28;20391;-87
2022/07/03 01:25:15;;;;;;;10.60;6.55;;;21.20;99.90;;;;;;5007552;28;20384;-86
2022/07/03 01:27:58;;;;;;;9.38;5.53;;;21.20;99.90;;;;;;4997748;28;20933;-87
2022/07/03 01:30:35;;;;;;;7.53;5.13;;;21.20;99.90;;;;;;5011470;28;20983;-86
2022/07/03 01:33:11;;;;;;;5.95;5.20;;;21.10;99.90;;;;;;4991751;28;20396;-87
2022/07/03 01:35:56;;;;;;;6.45;5.15;;;21.20;99.90;;;;;;5004006;28;20810;-87
2022/07/03 01:38:27;;;;;;;6.80;5.27;;;21.20;99.90;;;;;;4997676;28;20420;-87
2022/07/03 01:40:56;;;;;;;8.35;5.03;;;21.20;99.90;;;;;;5011601;28;20391;-87
2022/07/03 01:43:38;;;;;;;7.22;5.10;;;21.10;99.90;;;;;;5011977;28;20890;-87
2022/07/03 01:46:06;;;;;;;7.68;5.55;;;21.10;99.90;;;;;;5004544;28;20517;-87
2022/07/03 01:48:35;;;;;;;7.28;5.68;;;21.10;99.90;;;;;;5000026;28;20401;-87
2022/07/03 01:51:03;;;;;;;7.05;5.25;;;21.00;99.90;;;;;;4995505;28;20401;-87
2022/07/03 01:53:31;;;;;;;6.10;5.37;;;21.00;99.90;;;;;;4994014;28;20408;-87
2022/07/03 01:56:00;;;;;;;7.60;5.20;;;21.00;99.90;;;;;;5001135;28;20447;-87
2022/07/03 01:58:27;;;;;;;7.40;5.43;;;21.00;99.90;;;;;;4992589;28;20393;-87
2022/07/03 02:00:59;;;;;;;5.82;5.20;;;21.00;99.90;;;;;;4992422;28;20392;-87
2022/07/03 02:03:30;;;;;;;5.70;5.20;;;21.00;99.90;;;;;;4992432;28;20396;-87
2022/07/03 02:06:18;;;;;;;6.90;5.57;;;20.90;99.90;;;;;;4992808;28;20455;-87
2022/07/03 02:08:51;;;;;;;6.50;5.80;;;21.00;99.90;;;;;;4992121;28;20412;-87
2022/07/03 02:11:43;;;;;;;7.20;5.93;;;21.00;99.90;;;;;;4992308;28;20423;-86
2022/07/03 02:14:14;;;;;;;7.53;5.50;;;21.00;99.90;;;;;;4991384;28;20389;-87
2022/07/03 02:16:47;;;;;;;6.40;5.80;;;20.90;99.90;;;;;;4992350;28;20393;-87
2022/07/03 02:19:17;;;;;;;6.68;5.60;;;20.90;99.90;;;;;;4997283;28;20484;-87
2022/07/03 02:21:51;;;;;;;6.53;5.55;;;20.90;99.90;;;;;;5011884;28;20395;-87
2022/07/03 02:24:25;;;;;;;7.45;6.10;;;20.90;99.90;;;;;;5011841;28;20397;-87
2022/07/03 02:27:03;;;;;;;6.32;5.70;;;20.90;99.90;;;;;;5011995;28;20394;-86
2022/07/03 02:29:33;;;;;;;7.60;5.63;;;21.00;99.90;;;;;;5011745;28;20747;-87
2022/07/03 02:32:04;;;;;;;7.90;6.00;;;20.90;99.90;;;;;;5011826;28;20391;-87
2022/07/03 02:34:34;;;;;;;6.82;6.13;;;20.90;99.90;;;;;;5011808;28;20395;-87
2022/07/03 02:37:11;;;;;;;7.00;5.93;;;20.90;99.90;;;;;;5010623;28;20395;-86
2022/07/03 02:39:45;;;;;;;7.18;6.25;;;20.90;99.90;;;;;;5010577;28;20394;-88
2022/07/03 02:42:28;;;;;;;6.78;6.07;;;20.80;99.90;;;;;;4996005;28;20480;-87
2022/07/03 02:45:01;;;;;;;6.78;6.07;;;20.80;99.90;;;;;;5000426;28;20887;-87
2022/07/03 02:48:16;;;;;;;7.10;6.22;;;20.80;99.90;;;;;;4998167;28;20796;-86
2022/07/03 02:50:47;;;;;;;7.28;6.07;;;20.80;99.90;;;;;;4977075;28;20502;-87
2022/07/03 02:53:30;;;;;;;7.32;5.90;;;20.80;99.90;;;;;;5006869;28;20407;-87
2022/07/03 02:56:23;;;;;;;6.65;5.78;;;20.80;99.90;;;;;;5008536;28;20391;-87
2022/07/03 02:58:58;;;;;;;6.25;5.65;;;20.70;99.90;;;;;;5015133;28;20395;-87
2022/07/03 03:02:11;;;;;;;7.03;5.72;;;20.80;99.90;;;;;;5014738;28;20406;-87
2022/07/03 03:04:44;;;;;;;6.83;5.70;;;20.70;99.90;;;;;;4991080;28;20472;-87
2022/07/03 03:07:17;;;;;;;6.60;5.68;;;20.70;99.90;;;;;;4994155;28;20463;-87
2022/07/03 03:09:47;;;;;;;7.25;5.88;;;20.70;99.90;;;;;;4995371;28;20500;-87
2022/07/03 03:12:22;;;;;;;5.70;5.20;;;20.70;99.90;;;;;;4995364;28;20394;-87
2022/07/03 03:14:59;;;;;;;5.88;5.28;;;20.70;99.90;;;;;;4995360;28;20443;-86
2022/07/03 03:17:36;;;;;;;6.30;5.18;;;20.70;99.90;;;;;;4999463;28;20393;-87
2022/07/03 03:20:05;;;;;;;6.00;4.68;;;20.70;99.90;;;;;;5008782;28;20398;-86
2022/07/03 03:22:51;;;;;;;6.03;5.00;;;20.70;99.90;;;;;;5014351;28;20388;-87
2022/07/03 03:25:20;;;;;;;8.02;4.90;;;20.70;99.90;;;;;;5013680;28;20387;-87
2022/07/03 03:27:48;;;;;;;7.05;5.30;;;20.70;99.90;;;;;;5003114;28;20928;-87
2022/07/03 03:30:16;;;;;;;7.43;6.07;;;20.70;99.90;;;;;;4995045;28;20413;-87
2022/07/03 03:32:45;;;;;;;8.15;5.88;;;20.70;99.90;;;;;;5012774;28;20392;-87
2022/07/03 03:35:12;;;;;;;6.05;5.40;;;20.70;99.90;;;;;;5013423;28;20410;-87
2022/07/03 03:37:40;;;;;;;7.10;5.15;;;20.70;99.90;;;;;;4997316;28;20402;-88
2022/07/03 03:40:10;;;;;;;6.50;5.18;;;20.70;99.90;;;;;;5013362;28;20402;-87
2022/07/03 03:42:37;;;;;;;5.82;5.18;;;20.70;99.90;;;;;;5011203;28;20395;-87
2022/07/03 03:45:06;;;;;;;6.53;5.20;;;20.70;99.90;;;;;;5000609;28;20486;-87
2022/07/03 03:47:34;;;;;;;5.30;4.57;;;20.70;99.90;;;;;;5004531;28;20388;-87
2022/07/03 03:50:03;;;;;;;5.93;5.30;;;20.70;99.90;;;;;;5004711;28;20467;-87
2022/07/03 03:52:32;;;;;;;6.40;5.22;;;20.70;99.90;;;;;;5010990;28;20395;-87
2022/07/03 03:54:59;;;;;;;7.03;5.57;;;20.60;99.90;;;;;;5013093;28;20395;-88
2022/07/03 03:57:27;;;;;;;6.53;5.45;;;20.60;99.90;;;;;;5013780;28;20479;-88
2022/07/03 03:59:56;;;;;;;8.10;5.03;;;20.60;99.90;;;;;;5004429;28;20403;-87
2022/07/03 04:02:24;;;;;;;6.05;4.35;;;20.50;99.90;;;;;;4997528;28;20393;-87
2022/07/03 04:04:51;;;;;;;7.18;5.15;;;20.40;99.90;;;;;;4993245;28;20432;-86
2022/07/03 04:07:19;;;;;;;6.22;4.15;;;20.40;99.90;;;;;;4994288;28;20420;-87
2022/07/03 04:09:47;;;;;;;7.35;4.40;;;20.30;99.90;;;;;;4994221;28;20768;-87
2022/07/03 04:12:14;;;;;;;5.40;4.10;;;20.40;99.90;;;;;;4994302;28;20389;-87
2022/07/03 04:14:42;;;;;;;6.50;4.25;;;20.30;99.90;;;;;;4996775;28;20754;-87
2022/07/03 04:17:09;;;;;;;6.97;4.25;;;20.30;99.90;;;;;;5013518;28;20391;-87
2022/07/03 04:19:38;;;;;;;9.15;4.18;;;20.30;99.90;;;;;;5003400;28;20392;-86
2022/07/03 04:22:08;;;;;;;9.32;4.35;;;20.30;99.90;;;;;;4994253;28;20493;-87
2022/07/03 04:24:36;;;;;;;8.35;4.47;;;20.20;99.90;;;;;;4994160;28;20476;-87
2022/07/03 04:27:04;;;;;;;6.80;3.53;;;20.30;99.90;;;;;;4993929;28;20393;-87
2022/07/03 04:29:32;;;;;;;8.43;4.63;;;20.40;99.90;;;;;;4993922;28;20430;-87
2022/07/03 04:31:59;;;;;;;6.93;3.97;;;20.40;99.90;;;;;;4993838;28;20396;-86
2022/07/03 04:34:27;;;;;;;6.78;4.10;;;20.20;99.90;;;;;;5005662;28;20393;-85
2022/07/03 04:36:54;;;;;;;8.60;4.25;;;20.20;99.90;;;;;;5008673;28;20385;-86
2022/07/03 04:39:22;;;;;;;6.60;3.80;;;20.30;99.90;;;;;;4997810;28;20468;-86
2022/07/03 04:41:49;;;;;;;6.40;4.13;;;20.30;99.90;;;;;;5012389;28;20391;-86
2022/07/03 04:44:17;;;;;;;5.05;3.80;;;20.30;99.90;;;;;;4996251;28;20408;-86
2022/07/03 04:46:44;;;;;;;6.50;3.97;;;20.30;99.90;;;;;;5008782;28;20397;-87
2022/07/03 04:49:12;;;;;;;7.32;3.67;;;20.30;99.90;;;;;;5007839;28;20399;-87
2022/07/03 04:51:40;;;;;;;6.10;2.75;;;20.30;99.90;;;;;;5004690;28;20429;-87
2022/07/03 04:54:07;;;;;;;7.03;3.83;;;20.30;99.90;;;;;;5011502;28;20391;-86
2022/07/03 04:56:35;;;;;;;7.63;3.28;;;20.20;99.90;;;;;;4995132;28;20385;-87
2022/07/03 04:59:02;;;;;;;7.93;3.78;;;20.20;99.90;;;;;;4992227;28;20386;-87
2022/07/03 05:01:30;;;;;;;6.77;3.70;;;20.20;99.90;;;;;;4993283;28;20424;-87
2022/07/03 05:03:57;;;;;;;8.30;3.72;;;20.30;99.90;;;;;;4992496;28;20397;-87
2022/07/03 05:06:25;;;;;;;6.47;3.85;;;20.20;99.90;;;;;;5018889;28;20392;-87
2022/07/03 05:08:53;;;;;;;6.07;3.78;;;20.20;99.90;;;;;;5007116;28;20945;-86
2022/07/03 05:11:20;;;;;;;6.03;3.50;;;20.00;99.90;;;;;;5002524;28;20915;-87
2022/07/03 05:13:48;;;;;;;6.15;3.55;;;20.10;99.90;;;;;;5007805;28;20463;-87
2022/07/03 05:16:16;;;;;;;7.13;3.55;;;20.10;99.90;;;;;;5007198;28;20395;-86
2022/07/03 05:18:43;;;;;;;7.93;4.20;;;20.00;99.90;;;;;;5009719;28;20397;-86
2022/07/03 05:21:11;;;;;;;5.68;3.20;;;20.00;99.90;;;;;;4994744;28;20893;-87
2022/07/03 05:23:39;;;;;;;5.97;3.03;;;20.10;99.90;;;;;;5000066;28;20492;-86
2022/07/03 05:26:06;;;;;;;7.10;3.30;;;20.20;99.90;;;;;;5002751;28;20408;-86
2022/07/03 05:28:35;;;;;;;7.03;3.70;;;20.20;99.90;;;;;;4994145;28;20393;-87
2022/07/03 05:31:02;;;;;;;9.35;3.58;;;20.20;99.90;;;;;;4994705;28;20511;-86
2022/07/03 05:33:31;;;;;;;5.93;3.40;;;20.20;99.90;;;;;;5005349;28;20489;-85
2022/07/03 05:35:59;;;;;;;5.97;3.08;;;20.30;99.90;;;;;;5005618;28;20893;-85
2022/07/03 05:41:13;;;;;;;4.57;3.03;;;20.40;99.90;;;;;;4997183;28;20400;-85
2022/07/03 05:43:41;;;;;;;5.57;2.85;;;20.30;99.90;;;;;;4997866;28;20414;-85
2022/07/03 05:46:09;;;;;;;5.68;2.92;;;20.30;99.90;;;;;;5013795;28;20452;-87
2022/07/03 05:48:37;;;;;;;4.47;2.65;;;20.30;99.90;;;;;;4998994;28;20490;-88
2022/07/03 05:51:05;;;;;;;6.65;2.80;;;20.40;99.90;;;;;;5000191;28;20409;-88
2022/07/03 05:53:33;;;;;;;5.32;3.63;;;20.40;99.90;;;;;;4994083;28;20389;-88
2022/07/03 05:56:00;;;;;;;5.53;2.60;;;20.30;99.90;;;;;;4998935;28;20799;-88
2022/07/03 05:58:28;;;;;;;5.97;2.97;;;20.30;99.90;;;;;;5005650;28;20776;-88
2022/07/03 06:00:55;;;;;;;5.18;2.60;;;20.30;99.90;;;;;;5007539;28;20399;-87
2022/07/03 06:03:23;;;;;;;4.10;2.25;;;20.10;99.90;;;;;;5000653;28;20391;-88
2022/07/03 06:05:52;;;;;;;7.53;2.80;;;20.20;99.90;;;;;;5000218;28;20404;-87
2022/07/03 06:08:19;;;;;;;4.15;2.50;;;20.20;99.90;;;;;;5007841;28;20733;-87
2022/07/03 06:10:48;;;;;;;6.20;2.88;;;20.10;99.90;;;;;;4992233;28;20412;-87
2022/07/03 06:13:15;;;;;;;6.90;2.80;;;20.10;99.90;;;;;;4992393;28;20388;-88
2022/07/03 06:15:43;;;;;;;5.57;2.60;;;20.20;99.90;;;;;;4994998;28;20392;-88
2022/07/03 06:18:11;;;;;;;4.10;2.28;;;20.20;99.90;;;;;;4995496;28;20384;-88
2022/07/03 06:20:38;;;;;;;4.22;2.20;;;20.30;99.90;;;;;;4995461;28;20385;-86
2022/07/03 06:23:06;;;;;;;6.47;2.40;;;20.30;99.90;;;;;;5007161;28;20431;-86
2022/07/03 06:25:46;;;;;;;4.90;2.60;;;20.30;99.90;;;;;;5014250;28;20451;-88
2022/07/03 06:28:14;;;;;;;6.78;3.15;;;20.40;99.90;;;;;;5001332;28;20416;-86
2022/07/03 06:30:42;;;;;;;5.82;3.40;;;20.40;99.90;;;;;;5003364;28;20985;-88
2022/07/03 06:33:10;;;;;;;10.63;3.17;;;20.40;99.90;;;;;;5019868;28;20424;-88
2022/07/03 06:35:38;;;;;;;5.30;2.75;;;20.40;99.90;;;;;;5019525;28;20844;-88
2022/07/03 06:38:06;;;;;;;7.60;2.72;;;20.40;99.90;;;;;;5019738;28;20426;-88
2022/07/03 06:40:33;;;;;;;7.27;2.20;;;20.50;99.90;;;;;;4993915;28;20479;-87
2022/07/03 06:43:01;;;;;;;5.07;2.00;;;20.40;99.90;;;;;;5011337;28;20391;-88
2022/07/03 06:45:29;;;;;;;3.85;2.10;;;20.40;99.90;;;;;;5005115;28;20415;-87
2022/07/03 06:47:56;;;;;;;3.67;1.90;;;20.50;99.90;;;;;;5013212;28;20426;-86
2022/07/03 06:50:25;;;;;;;5.45;2.10;;;20.50;99.90;;;;;;5029046;28;20409;-88
2022/07/03 06:52:52;;;;;;;5.85;2.40;;;20.60;99.90;;;;;;5011399;28;20389;-86
2022/07/03 06:55:20;;;;;;;6.18;2.17;;;20.50;99.90;;;;;;5003015;28;20426;-86
2022/07/03 06:57:47;;;;;;;5.65;2.40;;;20.40;99.90;;;;;;4999135;28;20543;-87
2022/07/03 07:00:16;;;;;;;5.53;2.22;;;20.40;99.90;;;;;;5010852;28;20514;-87
2022/07/03 07:02:43;;;;;;;5.32;2.20;;;20.50;99.90;;;;;;4997279;28;20380;-86
2022/07/03 07:05:11;;;;;;;6.53;2.38;;;20.50;99.90;;;;;;5009893;28;20932;-87
2022/07/03 07:07:38;;;;;;;4.70;2.00;;;20.50;99.90;;;;;;5020123;28;20397;-87
2022/07/03 07:10:07;;;;;;;4.70;2.38;;;20.60;99.90;;;;;;5001519;28;20867;-87
2022/07/03 07:12:34;;;;;;;5.15;2.28;;;20.50;99.90;;;;;;5011896;28;20474;-87
2022/07/03 07:15:05;;;;;;;5.45;2.60;;;20.60;99.90;;;;;;5000306;28;20478;-88
2022/07/03 07:17:34;;;;;;;4.28;2.20;;;20.60;99.90;;;;;;5005831;28;20393;-88
2022/07/03 07:20:01;;;;;;;4.75;2.70;;;20.60;99.90;;;;;;4995750;28;20396;-88
2022/07/03 07:22:29;;;;;;;5.80;2.75;;;20.60;99.90;;;;;;5010406;28;20397;-87
2022/07/03 07:24:56;;;;;;;5.45;2.40;;;20.70;99.90;;;;;;4999873;28;20482;-87
2022/07/03 07:27:24;;;;;;;8.32;3.05;;;20.70;99.90;;;;;;5008303;28;20435;-87
2022/07/03 07:29:52;;;;;;;5.40;2.60;;;20.70;99.90;;;;;;5010439;28;20383;-88
2022/07/03 07:32:20;;;;;;;6.40;2.70;;;20.60;99.90;;;;;;5013467;28;20403;-86
2022/07/03 07:34:47;;;;;;;7.20;3.05;;;20.60;99.90;;;;;;5009707;28;20396;-85
2022/07/03 07:37:15;;;;;;;5.20;2.25;;;20.50;99.90;;;;;;4994290;28;20439;-85
2022/07/03 07:39:43;;;;;;;6.60;2.40;;;20.60;99.90;;;;;;4999171;28;20425;-88
2022/07/03 07:42:10;;;;;;;5.60;2.75;;;20.60;99.90;;;;;;5004041;28;20455;-87
2022/07/03 07:44:39;;;;;;;6.95;2.47;;;20.70;99.90;;;;;;4995800;28;20491;-88
2022/07/03 07:47:07;;;;;;;5.68;2.55;;;20.70;99.90;;;;;;4996590;28;20400;-89
2022/07/03 07:49:34;;;;;;;5.10;2.20;;;20.70;99.90;;;;;;4996560;28;20416;-89
2022/07/03 07:52:02;;;;;;;7.05;2.67;;;20.80;99.90;;;;;;5010854;28;20460;-88
2022/07/03 07:54:30;;;;;;;4.70;2.08;;;20.80;99.90;;;;;;5000844;28;20491;-88
2022/07/03 07:56:58;;;;;;;5.95;2.63;;;20.70;99.90;;;;;;5013490;28;20391;-87
2022/07/03 07:59:25;;;;;;;4.38;2.35;;;20.70;99.90;;;;;;5014481;28;20387;-87
2022/07/03 08:07:25;;;;;;;6.25;2.70;;;20.80;99.90;;;;;;4995507;28;20393;-89
2022/07/03 08:09:53;;;;;;;6.10;2.70;;;20.80;99.90;;;;;;4995412;28;20413;-88
2022/07/03 08:12:20;;;;;;;4.80;2.55;;;20.70;99.90;;;;;;4995462;28;20891;-88
2022/07/03 08:14:48;;;;;;;4.30;2.77;;;20.70;99.90;;;;;;4996783;28;20504;-89
2022/07/03 08:17:15;;;;;;;5.53;2.40;;;20.80;99.90;;;;;;5013838;28;20394;-87
2022/07/03 08:19:43;;;;;;;8.55;2.70;;;20.70;99.90;;;;;;5003904;28;20393;-89
2022/07/03 08:22:11;;;;;;;3.42;2.35;;;20.80;99.90;;;;;;5011696;28;20395;-87
2022/07/03 08:24:39;;;;;;;7.05;2.72;;;20.80;99.90;;;;;;5011389;28;20446;-88
2022/07/03 08:27:11;;;;;;;4.88;2.53;;;20.80;99.90;;;;;;4994144;28;20403;-88
2022/07/03 08:29:39;;;;;;;3.97;2.45;;;20.90;99.90;;;;;;4993940;28;20393;-88
2022/07/03 08:32:07;;;;;;;4.22;2.22;;;20.90;99.90;;;;;;5007965;28;20439;-87
2022/07/03 08:34:35;;;;;;;4.53;2.30;;;20.90;99.90;;;;;;5010567;28;20921;-85
2022/07/03 08:37:03;;;;;;;5.53;2.40;;;20.90;99.90;;;;;;5012626;28;20387;-86
2022/07/03 08:39:30;;;;;;;4.38;2.30;;;20.90;99.90;;;;;;5012547;28;20481;-88
2022/07/03 08:41:59;;;;;;;3.77;2.00;;;20.90;99.90;;;;;;5004724;28;20791;-86
2022/07/03 08:44:27;;;;;;;5.00;2.40;;;20.80;99.90;;;;;;4994959;28;20389;-86
2022/07/03 08:46:59;;;;;;;4.70;2.10;;;20.90;99.90;;;;;;5010663;28;20397;-89
2022/07/03 08:49:28;;;;;;;4.15;2.45;;;20.90;99.90;;;;;;4994928;28;20397;-86
2022/07/03 08:51:56;;;;;;;6.35;2.17;;;20.90;99.90;;;;;;4997200;28;20410;-82
2022/07/03 08:54:23;;;;;;;5.07;1.97;;;21.00;99.90;;;;;;4998281;28;20848;-85
2022/07/03 08:56:51;;;;;;;3.50;1.97;;;21.00;99.90;;;;;;5013822;28;20387;-85
2022/07/03 08:59:22;;;;;;;4.13;1.80;;;21.10;99.90;;;;;;5012922;28;20395;-87
2022/07/03 09:01:53;;;;;;;3.85;1.90;;;21.10;99.90;;;;;;5013389;28;20395;-86
2022/07/03 09:04:24;;;;;;;2.83;1.70;;;21.20;99.90;;;;;;5014162;28;20391;-84
2022/07/03 09:06:52;;;;;;;7.30;4.47;;;21.10;99.90;;;;;;5015589;28;20426;-85
2022/07/03 09:09:24;;;;;;;6.57;3.97;;;21.10;99.90;;;;;;5004902;28;20507;-86
2022/07/03 09:11:52;;;;;;;4.53;2.00;;;21.20;99.90;;;;;;4993272;28;20419;-86
2022/07/03 09:14:20;;;;;;;3.95;1.77;;;21.30;99.90;;;;;;4993159;28;20399;-83
2022/07/03 09:16:50;;;;;;;3.92;1.52;;;21.30;99.90;;;;;;5011032;28;20383;-85
2022/07/03 09:19:42;;;;;;;4.60;1.90;;;21.30;99.90;;;;;;4992268;28;20394;-86
2022/07/03 09:22:24;;;;;;;6.68;2.03;;;21.40;99.90;;;;;;5005840;28;20396;-86
2022/07/03 09:25:04;;;;;;;4.15;1.63;;;21.50;99.90;;;;;;4997029;28;20878;-87
2022/07/03 09:27:31;;;;;;;5.43;1.63;;;21.50;99.90;;;;;;5012075;28;20407;-86
2022/07/03 09:30:01;;;;;;;2.80;1.70;;;21.50;99.90;;;;;;5011846;28;20539;-87
2022/07/03 09:32:42;;;;;;;4.70;1.70;;;21.50;99.90;;;;;;5011859;28;20414;-86
2022/07/03 09:35:22;;;;;;;4.50;1.50;;;21.40;99.90;;;;;;5012299;28;20390;-86
2022/07/03 09:38:02;;;;;;;3.95;2.05;;;21.50;99.90;;;;;;5001075;28;20959;-87
2022/07/03 09:40:55;;;;;;;4.47;2.10;;;21.60;99.90;;;;;;5012571;28;20393;-87
2022/07/03 09:43:24;;;;;;;4.93;1.65;;;21.60;99.90;;;;;;4992780;28;20412;-87
2022/07/03 09:46:00;;;;;;;3.05;1.60;;;21.60;99.90;;;;;;5000362;28;20399;-86
2022/07/03 09:48:30;;;;;;;4.60;1.80;;;21.70;99.90;;;;;;5011087;28;20407;-87
2022/07/03 09:51:13;;;;;;;3.63;1.65;;;21.70;99.90;;;;;;5019945;28;20409;-85
2022/07/03 09:53:57;;;;;;;4.30;1.45;;;21.70;99.90;;;;;;5014380;28;20395;-87
2022/07/03 09:56:38;;;;;;;3.17;1.70;;;21.70;99.90;;;;;;5017572;28;20911;-86
2022/07/03 09:59:11;;;;;;;6.53;1.80;;;21.70;99.90;;;;;;5011054;28;20419;-85
2022/07/03 10:01:43;;;;;;;2.33;1.53;;;21.70;99.90;;;;;;5007607;28;20823;-86
2022/07/03 10:04:22;;;;;;;4.45;2.05;;;21.90;99.90;;;;;;5001781;28;20414;-86
2022/07/03 10:06:54;;;;;;;3.00;1.60;;;21.90;99.90;;;;;;5008639;28;20384;-85
2022/07/03 10:09:28;;;;;;;4.95;1.75;;;22.00;99.90;;;;;;5003656;28;20394;-86
2022/07/03 10:11:57;;;;;;;4.93;1.60;;;22.00;99.90;;;;;;5018561;28;20900;-85
2022/07/03 10:14:27;;;;;;;2.10;1.30;;;21.80;99.90;;;;;;5018614;28;20393;-86
2022/07/03 10:17:02;;;;;;;15.93;2.33;;;21.70;99.90;;;;;;5022024;28;20764;-86
2022/07/03 10:19:39;;;;;;;3.63;1.50;;;21.60;99.90;;;;;;5022371;28;20391;-87
2022/07/03 10:22:20;;;;;;;4.37;1.50;;;21.70;99.90;;;;;;5023258;28;20395;-81
2022/07/03 10:24:50;;;;;;;8.73;2.13;;;21.70;99.90;;;;;;5023338;28;20488;-87
2022/07/03 10:27:21;;;;;;;3.97;1.35;;;21.70;99.90;;;;;;5015451;28;20391;-86
2022/07/03 10:29:55;;;;;;;2.95;1.50;;;21.70;99.90;;;;;;5012303;28;20431;-86
2022/07/03 10:32:28;;;;;;;5.00;1.67;;;21.80;99.90;;;;;;5020489;28;20405;-86
2022/07/03 10:34:56;;;;;;;3.53;1.42;;;21.80;99.90;;;;;;5006262;28;20403;-88
2022/07/03 10:37:34;;;;;;;4.18;1.40;;;21.80;99.90;;;;;;5000024;28;20414;-86
2022/07/03 10:46:24;;;;;;;3.22;1.65;;;21.80;99.90;;;;;;5007116;28;20395;-88
2022/07/03 10:48:52;;;;;;;4.03;1.50;;;21.80;99.90;;;;;;4995917;28;20868;-84
2022/07/03 10:51:20;;;;;;;3.70;1.50;;;21.80;99.90;;;;;;5004088;28;20400;-85
2022/07/03 10:53:49;;;;;;;4.78;1.58;;;21.80;99.90;;;;;;5003201;28;20866;-85
2022/07/03 10:56:17;;;;;;;6.13;1.70;;;21.90;99.90;;;;;;5011745;28;20391;-86
2022/07/03 10:58:58;;;;;;;5.00;1.50;;;21.80;99.90;;;;;;5006793;28;20442;-86
2022/07/03 11:01:33;;;;;;;3.40;1.48;;;21.90;99.90;;;;;;5002035;28;20884;-86
2022/07/03 11:04:01;;;;;;;5.15;1.55;;;21.80;99.90;;;;;;5002102;28;20407;-86
2022/07/03 11:06:44;;;;;;;3.45;1.50;;;21.70;99.90;;;;;;5006038;28;20472;-85
2022/07/03 11:09:14;;;;;;;2.42;1.50;;;21.70;99.90;;;;;;5008940;28;20447;-86
2022/07/03 11:11:55;;;;;;;3.22;1.40;;;21.80;99.90;;;;;;5008570;28;20902;-85
2022/07/03 11:14:25;;;;;;;3.63;1.30;;;21.80;99.90;;;;;;5010475;28;20433;-84
2022/07/03 11:17:19;;;;;;;3.85;1.70;;;21.80;99.90;;;;;;5007564;28;20440;-85
2022/07/03 11:22:51;;;;;;;4.10;1.60;;;21.80;99.90;;;;;;4996410;28;20448;-85
2022/07/03 11:25:19;;;;;;;3.03;1.25;;;21.80;99.90;;;;;;5004639;28;20436;-85
2022/07/03 11:27:47;;;;;;;4.22;1.52;;;21.80;99.90;;;;;;5000996;28;20401;-86
2022/07/03 11:30:15;;;;;;;4.07;1.50;;;21.80;99.90;;;;;;5013283;28;20916;-86
2022/07/03 11:32:45;;;;;;;3.22;1.30;;;21.80;99.90;;;;;;4995869;28;20443;-86
2022/07/03 11:35:54;;;;;;;3.80;1.60;;;21.90;99.90;;;;;;4995297;28;20389;-84
2022/07/03 11:38:27;;;;;;;3.37;1.60;;;21.90;99.90;;;;;;4998189;28;20383;-84
2022/07/03 11:40:58;;;;;;;3.40;1.40;;;22.00;99.90;;;;;;4994277;28;20392;-86
2022/07/03 11:43:26;;;;;;;2.87;1.40;;;22.00;99.90;;;;;;4995280;28;20404;-84
2022/07/03 11:45:54;;;;;;;4.75;1.80;;;22.10;99.90;;;;;;5009949;28;20392;-86
2022/07/03 11:48:25;;;;;;;4.18;1.33;;;22.20;99.90;;;;;;4994066;28;20476;-84
2022/07/03 11:50:59;;;;;;;1.98;1.20;;;22.20;99.90;;;;;;4994986;28;20468;-86
2022/07/03 11:53:29;;;;;;;3.73;1.40;;;22.20;99.90;;;;;;4995545;28;20443;-86
2022/07/03 11:56:07;;;;;;;2.92;1.40;;;22.30;99.90;;;;;;4995709;28;20439;-87
2022/07/03 11:58:52;;;;;;;3.37;1.40;;;22.30;99.90;;;;;;4995010;28;20384;-86
2022/07/03 12:01:22;;;;;;;4.57;1.70;;;22.30;99.90;;;;;;4997960;28;20851;-88
2022/07/03 12:03:52;;;;;;;2.20;1.30;;;22.40;99.90;;;;;;5002973;28;20401;-89
2022/07/03 12:06:20;;;;;;;7.22;4.20;;;22.40;99.90;;;;;;5000382;28;20392;-87
2022/07/03 12:08:48;;;;;;;4.13;1.50;;;22.40;99.90;;;;;;4995810;28;20500;-88
2022/07/03 12:11:17;;;;;;;3.07;1.40;;;22.30;99.90;;;;;;4995658;28;20404;-85
2022/07/03 12:13:45;;;;;;;4.88;1.52;;;22.40;99.90;;;;;;4995921;28;20393;-87
2022/07/03 12:16:14;;;;;;;3.63;1.40;;;22.40;99.90;;;;;;5000724;28;20943;-85
2022/07/03 12:18:46;;;;;;;4.20;1.40;;;22.40;99.90;;;;;;4995585;28;20385;-86
2022/07/03 12:21:15;;;;;;;4.17;1.50;;;22.50;99.90;;;;;;4995711;28;20852;-85
2022/07/03 12:23:50;;;;;;;2.87;1.23;;;22.60;99.90;;;;;;4996750;28;20401;-87
2022/07/03 12:26:34;;;;;;;3.35;1.65;;;22.60;99.90;;;;;;4995302;28;20400;-86
2022/07/03 12:29:15;;;;;;;4.00;1.40;;;22.60;99.90;;;;;;4994147;28;21459;-87
2022/07/03 12:31:48;;;;;;;5.32;1.60;;;22.60;99.90;;;;;;5006158;28;20507;-87
2022/07/03 12:34:17;;;;;;;4.27;1.60;;;22.50;99.90;;;;;;5010182;28;20819;-87
2022/07/03 12:36:58;;;;;;;2.75;1.38;;;22.50;99.90;;;;;;5012702;28;20391;-87
2022/07/03 12:39:48;;;;;;;4.72;1.50;;;22.50;99.90;;;;;;5015151;28;20387;-84
2022/07/03 12:42:21;;;;;;;6.60;1.45;;;22.50;99.90;;;;;;5012990;28;20430;-87
2022/07/03 12:45:16;;;;;;;4.30;1.67;;;22.50;99.90;;;;;;5011850;28;20774;-87
2022/07/03 12:47:45;;;;;;;6.20;1.60;;;22.50;99.90;;;;;;4994099;28;20451;-87
2022/07/03 12:50:15;;;;;;;3.50;1.25;;;22.50;99.90;;;;;;4993979;28;20435;-87
2022/07/03 12:52:51;;;;;;;3.67;1.45;;;22.50;99.90;;;;;;4994285;28;21141;-88
2022/07/03 12:55:27;;;;;;;5.75;1.60;;;22.90;99.90;;;;;;4992899;28;20400;-87
2022/07/03 13:01:02;;;;;;;2.88;1.50;;;23.00;99.90;;;;;;4998779;28;20395;-85
2022/07/03 13:03:34;;;;;;;3.50;1.45;;;22.90;99.90;;;;;;5012852;28;20395;-87
2022/07/03 13:06:14;;;;;;;4.23;1.63;;;22.70;99.90;;;;;;5010511;28;20399;-87
2022/07/03 13:09:09;;;;;;;3.78;1.60;;;22.70;99.90;;;;;;5003677;28;20431;-87
2022/07/03 13:11:38;;;;;;;4.13;2.37;;;22.90;99.90;;;;;;4990059;28;20397;-86
2022/07/03 13:14:14;;;;;;;5.80;3.00;;;23.10;99.90;;;;;;5008271;28;20768;-85
2022/07/03 13:16:47;;;;;;;3.85;1.70;;;23.50;99.90;;;;;;5009991;28;20399;-86
2022/07/03 13:19:20;;;;;;;3.65;1.52;;;23.70;99.90;;;;;;5011738;28;20453;-86
2022/07/03 13:21:50;;;;;;;3.13;1.60;;;23.60;99.90;;;;;;5012404;28;20422;-86
2022/07/03 13:24:19;;;;;;;3.43;1.60;;;23.40;99.90;;;;;;5010663;28;20392;-86
2022/07/03 13:26:49;;;;;;;4.25;1.77;;;23.30;99.90;;;;;;5012330;28;20478;-86
2022/07/03 13:29:21;;;;;;;5.70;1.90;;;23.30;99.90;;;;;;5012468;28;20394;-86
2022/07/03 13:31:49;;;;;;;4.57;1.98;;;23.70;99.90;;;;;;5012232;28;20453;-86